Terminal Aerodrome Forecast
Issued by NWS

Home | Current Version | Previous Version | Text Only | Print | Product List | Glossary On
Versions: 1 2 3 4 5 6 7 8 9 10 11 12 13 14 15 16 17 18 19 20 21 22 23 24 25 26 27 28 29 30 31 32 33 34
000
FTUS43 KDLH 191355 AAA
TAFBRD
TAF AMD
KBRD 191355Z 1914/2012 17007KT 1/4SM FG VV002
      TEMPO 1914/1917 1/2SM FG
     FM191700 18007KT 3SM BR BKN005
     FM192100 17006KT 1/4SM FG OVC007
     FM200000 17004KT 1/4SM FZFG OVC002=

USA.gov is the U.S. government's official web portal to all federal, state and local government web resources and services.